Iron, MN (55751)

12:26 AM CDT on July 23, 2014 (GMT -0500)
Hibbing, MN (KMNHIBBI2) Elev 1312 ft | 47.36 °N, 92.82 °W | Change Station
Active Advisory: Areal Flood Warning Active Notice: Local Storm Report

Current weather conditions updated 9 minutes ago

Overcast
Overcast
54.1 °F
Feels Like 54.1 °F
N
0.0
Wind Variable Wind from WSW
Gusts 0.0 mph

Today is forecast to be Cooler than yesterday.

Today
High -- | Low -- °F
--% Chance of Precip.
Yesterday
High -- | Low -- °F
Precip. -- in
5:37 AM 8:55 PM
Waning Crescent, 12% visible
Pressure 30.19 in
Visibility 10.0 miles
Clouds Scattered Clouds 7000 ft
Dew Point 36 °F
Humidity 51%
Rainfall 0.00 in
Snow Depth Not available.
UV 0 out of 12
Pollen .60 out of 12
Air Quality Not available.
Flu Activity Not available.
METAR KHIB 230453Z AUTO 00000KT 10SM SCT070 12/11 A3019 RMK AO2 SLP223 T01220106

More Conditions Fewer Conditions

Pressure 30.19 in
Visibility 10.0 miles
Clouds Scattered Clouds 7000 ft
Dew Point 36 °F
Humidity 51%
Rainfall 0.00 in
Snow Depth Not available.
UV 0 out of 12
Pollen .60 out of 12
Air Quality Not available.
Flu Activity Not available.
METAR KHIB 230453Z AUTO 00000KT 10SM SCT070 12/11 A3019 RMK AO2 SLP223 T01220106

More Conditions Fewer Conditions

10-Day Weather Forecast

Almanac

Astronomy

Jul. 23, 2014 Rise Set
Actual Time 5:37 AM CDT 8:55 PM CDT
Civil Twilight 5:00 AM CDT 9:32 PM CDT
Nautical Twilight 4:11 AM CDT 10:21 PM CDT
Astronomical Twilight 3:08 AM CDT 11:23 PM CDT
Moon 2:59 AM CDT 6:23 PM CDT
Length of Visible Light 16h 32m
Length of Day
15h 17m
Tomorrow will be 2m 18s shorter.
Waning Crescent, 12% of the Moon is Illuminated
Today
Waning Crescent
Jul 26
New
Aug 3
First Quarter
Aug 10
Full
Aug 17
Last Quarter

Today's Extremes

State Highs State Lows

Community

WunderPhotos

Upload Photos

1,736,513 photos uploaded!

Nearby

Snow Depth

Station Depth Elevation
No new snow has been reported.

Earthquake Activity

City Distance Mag. Time & Date
No recent earthquake activity has been reported nearby.
Minimum magnitude displayed is 2.5.

Coastal Water Temperatures

Place Temperature
No Stations Reporting

Nearby Weather Stations

Station Location Temp. Dew Point Humidity Wind Precip. Elev Updated Type
RAWS HIBBING MN, Hibbing, MN 55 °F 53 °F 93% North  at  0 mph 0.00 in / hr 1350 ft 11:07 PM CDT MADIS
Hibbing, MN, Hibbing, MN 54.1 °F 36 °F 51% WSW  at  0.0 mph 0.00 in / hr 1312 ft 12:16 AM CDT Normal
Leisure Lake,Mn, Makinen, MN 57.6 °F 55 °F 91% East  at  0.0 mph - / hr 1427 ft 12:20 AM CDT Normal

Show More Stations Show Fewer Stations